Ironwood, MI

10:46 PM CST on November 24, 2017 (GMT -0600)
Gogebic-Iron County

Weather History for KIWD - March, 2013

Change the Weather History Date:

Saturday, March 30, 2013

  Actual Average Record
Temperature  
Mean Temperature 40 °F -  
Max Temperature 42 °F 39 °F 64 °F (2005)
Min Temperature 37 °F 22 °F 8 °F (1997)
Degree Days  
Heating Degree Days 26    
Moisture  
Dew Point 31 °F    
Average Humidity 74    
Maximum Humidity 93    
Minimum Humidity 49    
Precipitation  
Precipitation 0.21 in - - ()
Sea Level Pressure  
Sea Level Pressure 29.85 in    
Wind  
Wind Speed 10 mph (SSW)    
Max Wind Speed 16 mph    
Max Gust Speed 22 mph    
Visibility 8 miles    
Events      
Averages and records for this station are not official NWS values.
T = Trace of Precipitation, MM = Missing Value Source: NWS Daily Summary

Daily Weather History Graph

Daily Weather History Graph

Search for Another Location

Airport or City:

Trip Planner

Search our weather history database for the weather conditions in past years. The results will help you decide how hot, cold, wet, or windy it might be!

Date:

Astronomy

Mar. 30, 2013 Rise Set
Actual Time 6:43 AM CDT 7:27 PM CDT
Civil Twilight 6:12 AM CDT 7:57 PM CDT
Nautical Twilight 5:36 AM CDT 8:34 PM CDT
Astronomical Twilight 4:58 AM CDT 9:12 PM CDT
Moon 11:48 PM CDT (3/30) 8:25 AM CDT (3/30)
Length of Visible Light 13h 44m
Length of Day
12h 43m
Waning Gibbous, 86% of the Moon is Illuminated
Mar 30
Waning Gibbous
Apr 2
Last Quarter
Apr 10
New
Apr 18
First Quarter
Apr 25
Full

Hourly Weather History & Observations

Time (CDT) Temp. Windchill Dew Point Humidity Pressure Visibility Wind Dir Wind Speed Gust Speed Precip Events Conditions
12:35 AM 39.2 °F 32.0 °F 23.0 °F 52% 30.05 in 10.0 mi SSW 11.5 mph - N/A   Mostly Cloudy
12:55 AM 39.2 °F 33.0 °F 23.0 °F 52% 30.05 in 10.0 mi SSW 9.2 mph - N/A   Overcast
1:15 AM 41.0 °F 34.7 °F 23.0 °F 49% 30.04 in 10.0 mi SSW 10.4 mph - N/A   Overcast
1:35 AM 41.0 °F 33.9 °F 23.0 °F 49% 30.03 in 10.0 mi South 12.7 mph - N/A   Mostly Cloudy
1:55 AM 41.0 °F 34.3 °F 23.0 °F 49% 30.02 in 10.0 mi SSW 11.5 mph 19.6 mph N/A   Mostly Cloudy
2:15 AM 39.2 °F 32.0 °F 21.2 °F 49% 30.02 in 10.0 mi South 11.5 mph 16.1 mph N/A   Mostly Cloudy
2:35 AM 39.2 °F 32.0 °F 21.2 °F 49% 30.01 in 10.0 mi South 11.5 mph 16.1 mph N/A   Scattered Clouds
2:55 AM 39.2 °F 33.6 °F 23.0 °F 52% 30.00 in 10.0 mi SSW 8.1 mph - N/A   Scattered Clouds
3:15 AM 39.2 °F 32.5 °F 23.0 °F 52% 29.99 in 10.0 mi South 10.4 mph - N/A   Mostly Cloudy
3:35 AM 39.2 °F 32.5 °F 21.2 °F 49% 29.98 in 10.0 mi South 10.4 mph - N/A   Mostly Cloudy
3:55 AM 39.2 °F 33.6 °F 23.0 °F 52% 29.97 in 10.0 mi South 8.1 mph - N/A   Partly Cloudy
4:15 AM 41.0 °F 34.7 °F 24.8 °F 53% 29.96 in 10.0 mi SSW 10.4 mph - N/A   Mostly Cloudy
4:35 AM 42.8 °F 36.2 °F 24.8 °F 49% 29.96 in 10.0 mi SW 12.7 mph 19.6 mph N/A   Scattered Clouds
4:55 AM 41.0 °F 33.9 °F 26.6 °F 57% 29.96 in 10.0 mi SSW 12.7 mph 19.6 mph N/A   Mostly Cloudy
5:15 AM 39.2 °F 31.2 °F 28.4 °F 65% 29.95 in 9.0 mi SSW 13.8 mph 20.7 mph N/A   Overcast
5:35 AM 39.2 °F 32.5 °F 30.2 °F 70% 29.95 in 8.0 mi South 10.4 mph - N/A   Overcast
5:55 AM 37.4 °F 28.2 °F 32.0 °F 81% 29.94 in 8.0 mi South 16.1 mph 21.9 mph 0.02 in   Overcast
6:15 AM 37.4 °F 30.8 °F 32.0 °F 81% 29.94 in 9.0 mi South 9.2 mph 17.3 mph 0.04 in   Overcast
6:35 AM 37.4 °F 31.4 °F 32.0 °F 81% 29.92 in 9.0 mi South 8.1 mph - 0.07 in   Overcast
6:55 AM 37.4 °F 30.8 °F 32.0 °F 81% 29.90 in 5.0 mi South 9.2 mph - 0.09 in   Overcast
7:15 AM 37.4 °F 30.3 °F 32.0 °F 81% 29.89 in 5.0 mi South 10.4 mph - 0.01 in   Overcast
7:55 AM 37.4 °F 30.3 °F 32.0 °F 81% 29.86 in 8.0 mi South 10.4 mph - 0.02 in   Overcast
8:15 AM 37.4 °F 30.3 °F 33.8 °F 87% 29.86 in 5.0 mi South 10.4 mph 16.1 mph 0.01 in   Overcast
8:35 AM 37.4 °F 30.3 °F 33.8 °F 87% 29.85 in 5.0 mi SSE 10.4 mph 17.3 mph 0.03 in   Overcast
8:55 AM 37.4 °F 32.8 °F 32.0 °F 81% 29.84 in 5.0 mi SE 5.8 mph - 0.04 in   Overcast
9:15 AM 37.4 °F 32.8 °F 30.2 °F 75% 29.84 in 5.0 mi SSW 5.8 mph - 0.01 in   Overcast
9:35 AM 37.4 °F 32.8 °F 30.2 °F 75% 29.84 in 6.0 mi SSW 5.8 mph - 0.02 in   Overcast
9:55 AM 37.4 °F 32.1 °F 32.0 °F 81% 29.83 in 5.0 mi South 6.9 mph - 0.02 in   Overcast
10:15 AM 37.4 °F 32.1 °F 32.0 °F 81% 29.82 in 5.0 mi South 6.9 mph - 0.01 in   Overcast
10:35 AM 37.4 °F 32.8 °F 32.0 °F 81% 29.81 in 5.0 mi SSW 5.8 mph - 0.01 in   Overcast
10:55 AM 37.4 °F 31.4 °F 33.8 °F 87% 29.81 in 6.0 mi SSW 8.1 mph - 0.01 in   Overcast
11:15 AM 37.4 °F 32.1 °F 32.0 °F 81% 29.80 in 8.0 mi SSW 6.9 mph - 0.01 in   Overcast
11:35 AM 37.4 °F 30.8 °F 32.0 °F 81% 29.80 in 8.0 mi SW 9.2 mph - 0.01 in   Overcast
11:55 AM 37.4 °F 31.4 °F 33.8 °F 87% 29.80 in 7.0 mi SW 8.1 mph - 0.01 in   Overcast
12:15 PM 37.4 °F 31.4 °F 33.8 °F 87% 29.80 in 7.0 mi SW 8.1 mph - N/A   Overcast
12:35 PM 37.4 °F 32.1 °F 33.8 °F 87% 29.79 in 2.0 mi SW 6.9 mph - N/A   Overcast
12:55 PM 37.4 °F 31.4 °F 33.8 °F 87% 29.79 in 1.5 mi SW 8.1 mph - N/A   Overcast
1:15 PM 37.4 °F 31.4 °F 35.6 °F 93% 29.79 in 1.8 mi SW 8.1 mph - N/A   Overcast
1:35 PM 37.4 °F 32.1 °F 33.8 °F 87% 29.78 in 5.0 mi SW 6.9 mph - N/A   Overcast
2:15 PM 39.2 °F 32.5 °F 35.6 °F 87% 29.77 in 10.0 mi WSW 10.4 mph - N/A   Overcast
2:35 PM 39.2 °F 32.0 °F 35.6 °F 87% 29.77 in 8.0 mi WSW 11.5 mph - N/A   Overcast
2:55 PM 39.2 °F 34.2 °F 35.6 °F 87% 29.77 in 8.0 mi WSW 6.9 mph - N/A   Overcast
3:15 PM 39.2 °F 32.5 °F 33.8 °F 81% 29.77 in 9.0 mi WSW 10.4 mph - N/A   Overcast
3:35 PM 39.2 °F 33.0 °F 35.6 °F 87% 29.76 in 10.0 mi West 9.2 mph - N/A   Overcast
3:55 PM 39.2 °F 33.0 °F 35.6 °F 87% 29.76 in 10.0 mi West 9.2 mph - N/A   Overcast
5:35 PM 42.8 °F 37.5 °F 35.6 °F 76% 29.75 in 8.0 mi SW 9.2 mph - N/A   Mostly Cloudy
5:55 PM 42.8 °F 38.6 °F 33.8 °F 70% 29.75 in 9.0 mi SW 6.9 mph - N/A   Partly Cloudy
6:15 PM 42.8 °F 38.0 °F 33.8 °F 70% 29.74 in 9.0 mi SW 8.1 mph - N/A   Clear
6:35 PM 42.8 °F 38.6 °F 33.8 °F 70% 29.74 in 9.0 mi SW 6.9 mph - N/A   Clear
6:55 PM 42.8 °F 38.6 °F 33.8 °F 70% 29.74 in 9.0 mi SW 6.9 mph - N/A   Clear
7:15 PM 42.8 °F 38.6 °F 33.8 °F 70% 29.73 in 9.0 mi SSW 6.9 mph - N/A   Clear
8:55 PM 39.2 °F 33.0 °F 33.8 °F 81% 29.72 in 9.0 mi SSW 9.2 mph - N/A   Clear
9:15 PM 39.2 °F 32.5 °F 33.8 °F 81% 29.72 in 9.0 mi SW 10.4 mph - N/A   Clear
9:35 PM 39.2 °F 33.6 °F 33.8 °F 81% 29.72 in 8.0 mi SW 8.1 mph - N/A   Clear
9:55 PM 39.2 °F 33.0 °F 33.8 °F 81% 29.72 in 8.0 mi SW 9.2 mph - N/A   Clear
10:15 PM 39.2 °F 33.0 °F 33.8 °F 81% 29.71 in 10.0 mi SW 9.2 mph - N/A   Scattered Clouds
10:35 PM 39.2 °F 33.0 °F 33.8 °F 81% 29.71 in 10.0 mi SW 9.2 mph - N/A   Mostly Cloudy
10:55 PM 39.2 °F 33.0 °F 33.8 °F 81% 29.71 in 10.0 mi SW 9.2 mph - N/A   Mostly Cloudy
11:35 PM 37.4 °F - 30.2 °F 75% 29.71 in 10.0 mi Calm Calm - N/A   Mostly Cloudy
11:55 PM 37.4 °F 32.1 °F 32.0 °F 81% 29.70 in 10.0 mi SW 6.9 mph - N/A   Overcast